createdAt,value
2023-05-02T00:01:02.484Z,56.63
2023-05-02T00:03:29.627Z,56.61
2023-05-02T00:05:56.528Z,56.62
2023-05-02T00:08:23.433Z,56.60
2023-05-02T00:10:50.298Z,56.62
2023-05-02T00:13:17.115Z,56.69
2023-05-02T00:15:45.437Z,56.75
2023-05-02T00:18:12.531Z,57.01
2023-05-02T00:20:41.436Z,57.21
2023-05-02T00:23:08.372Z,57.62
2023-05-02T00:25:36.244Z,57.71
2023-05-02T00:28:03.190Z,57.83
2023-05-02T00:30:30.135Z,57.85
2023-05-02T00:32:57.461Z,57.81
2023-05-02T00:35:24.546Z,57.88
2023-05-02T00:37:51.423Z,57.81
2023-05-02T00:40:18.522Z,57.84
2023-05-02T00:42:45.722Z,57.82
2023-05-02T00:45:12.799Z,57.84
2023-05-02T00:47:39.752Z,57.88
2023-05-02T00:50:07.269Z,57.85
2023-05-02T00:52:34.492Z,57.85
2023-05-02T00:55:02.001Z,57.66
2023-05-02T00:57:28.997Z,57.57
2023-05-02T00:59:56.449Z,57.66
2023-05-02T01:02:46.821Z,57.79
2023-05-02T01:05:45.156Z,57.79
2023-05-02T01:08:22.453Z,58.02
2023-05-02T01:11:07.950Z,58.18
2023-05-02T01:13:35.596Z,58.12
2023-05-02T01:16:03.517Z,58.10
2023-05-02T01:18:32.685Z,57.93
2023-05-02T01:21:01.812Z,57.71
2023-05-02T01:24:05.738Z,57.77
2023-05-02T01:26:35.061Z,57.80
2023-05-02T01:29:03.122Z,57.97
2023-05-02T01:31:37.047Z,58.22
2023-05-02T01:34:05.832Z,58.37
2023-05-02T01:36:32.811Z,58.64
2023-05-02T01:39:00.849Z,58.94
2023-05-02T01:41:29.263Z,59.02
2023-05-02T01:43:57.442Z,59.11
2023-05-02T01:46:26.648Z,58.92
2023-05-02T01:48:53.546Z,59.01
2023-05-02T01:51:20.474Z,59.23
2023-05-02T01:53:48.443Z,59.45
2023-05-02T01:56:17.124Z,59.45
2023-05-02T01:58:43.966Z,59.50
2023-05-02T02:01:11.050Z,59.38
2023-05-02T02:03:38.108Z,59.29
2023-05-02T02:06:05.125Z,59.40
2023-05-02T02:08:32.170Z,59.43
2023-05-02T02:11:00.848Z,59.38
2023-05-02T02:13:31.521Z,59.29
2023-05-02T02:15:59.893Z,59.34
2023-05-02T02:18:26.751Z,59.29
2023-05-02T02:20:53.847Z,59.29
2023-05-02T02:23:22.237Z,59.40
2023-05-02T02:25:50.582Z,59.69
2023-05-02T02:28:17.574Z,59.85
2023-05-02T02:30:44.533Z,60.00
2023-05-02T02:33:11.356Z,60.06
2023-05-02T02:35:40.750Z,59.96
2023-05-02T02:38:31.901Z,60.02
2023-05-02T02:41:09.197Z,59.99
2023-05-02T02:43:53.497Z,60.15
2023-05-02T02:46:31.786Z,60.28
2023-05-02T02:49:12.885Z,60.34
2023-05-02T02:51:50.897Z,60.28
2023-05-02T02:54:30.353Z,60.34
2023-05-02T02:57:14.356Z,60.30
2023-05-02T02:59:46.565Z,60.19
2023-05-02T03:02:15.239Z,60.10
2023-05-02T03:04:42.518Z,59.94
2023-05-02T03:07:09.433Z,59.84
2023-05-02T03:09:46.664Z,59.91
2023-05-02T03:12:16.738Z,59.96
2023-05-02T03:14:43.915Z,59.86
2023-05-02T03:17:11.606Z,59.84
2023-05-02T03:19:38.633Z,59.81
2023-05-02T03:22:05.827Z,59.86
2023-05-02T03:24:33.392Z,60.02
2023-05-02T03:27:00.569Z,60.08
2023-05-02T03:29:30.383Z,59.92
2023-05-02T03:31:57.474Z,59.58
2023-05-02T03:34:24.570Z,59.45
2023-05-02T03:36:51.681Z,59.31
2023-05-02T03:39:20.406Z,59.29
2023-05-02T03:41:47.872Z,59.31
2023-05-02T03:44:16.682Z,59.30
2023-05-02T03:46:43.941Z,59.34
2023-05-02T03:49:11.233Z,59.34
2023-05-02T03:51:40.818Z,59.27
2023-05-02T03:54:09.998Z,59.29
2023-05-02T03:56:41.345Z,59.23
2023-05-02T03:59:15.141Z,59.15
2023-05-02T04:01:42.252Z,59.26
2023-05-02T04:04:11.547Z,59.23
2023-05-02T04:06:45.708Z,59.38
2023-05-02T04:09:12.758Z,59.51
2023-05-02T04:11:47.485Z,59.79
2023-05-02T04:14:14.587Z,59.98
2023-05-02T04:30:14.112Z,61.02
2023-05-02T04:32:43.960Z,60.16
2023-05-02T04:35:11.654Z,60.20
2023-05-02T04:37:38.943Z,60.40
2023-05-02T04:40:07.397Z,60.45
2023-05-02T04:42:34.271Z,60.39
2023-05-02T04:45:11.536Z,59.91
2023-05-02T04:47:38.690Z,59.31
2023-05-02T04:50:07.294Z,58.41
2023-05-02T04:52:34.122Z,57.32
2023-05-02T04:55:01.061Z,56.52
2023-05-02T04:57:28.131Z,55.74
2023-05-02T04:59:58.305Z,54.77
2023-05-02T05:02:28.913Z,53.83
2023-05-02T05:04:57.499Z,53.20
2023-05-02T05:07:25.785Z,52.86
2023-05-02T05:09:53.772Z,52.33
2023-05-02T05:12:22.334Z,50.79
2023-05-02T05:14:50.617Z,49.63
2023-05-02T05:17:18.569Z,48.95
2023-05-02T05:19:45.565Z,48.55
2023-05-02T05:22:12.501Z,48.23
2023-05-02T05:24:39.685Z,47.76
2023-05-02T05:27:06.634Z,47.37
2023-05-02T05:29:33.593Z,47.19
2023-05-02T05:32:00.570Z,47.13
2023-05-02T05:34:28.246Z,47.09
2023-05-02T05:36:58.048Z,46.99
2023-05-02T05:39:25.641Z,46.88
2023-05-02T05:41:54.711Z,46.63
2023-05-02T05:44:22.437Z,46.62
2023-05-02T05:46:49.545Z,46.63
2023-05-02T05:49:18.509Z,46.67
2023-05-02T05:51:47.872Z,46.52
2023-05-02T05:54:17.093Z,45.59
2023-05-02T05:56:44.336Z,45.10
2023-05-02T05:59:14.500Z,44.29
2023-05-02T06:01:41.752Z,43.56
2023-05-02T06:04:09.116Z,43.27
2023-05-02T06:06:39.646Z,43.16
2023-05-02T06:09:06.491Z,42.98
2023-05-02T06:11:33.519Z,42.81
2023-05-02T06:14:01.284Z,42.67
2023-05-02T06:16:28.380Z,42.40
2023-05-02T06:18:55.328Z,41.96
2023-05-02T06:21:22.411Z,41.40
2023-05-02T06:23:49.325Z,40.75
2023-05-02T06:26:16.512Z,40.28
2023-05-02T06:28:44.525Z,39.66
2023-05-02T06:31:11.472Z,39.25
2023-05-02T06:33:38.637Z,39.09
2023-05-02T06:36:05.611Z,39.41
2023-05-02T06:38:32.528Z,39.31
2023-05-02T06:40:59.589Z,39.25
2023-05-02T06:43:26.732Z,39.21
2023-05-02T06:45:54.916Z,39.17
2023-05-02T06:48:22.358Z,39.65
2023-05-02T06:50:49.831Z,39.45
2023-05-02T06:53:16.889Z,38.95
2023-05-02T06:55:45.044Z,38.92
2023-05-02T06:58:12.087Z,38.27
2023-05-02T07:00:38.980Z,38.44
2023-05-02T07:03:06.084Z,38.69
2023-05-02T07:05:33.161Z,38.86
2023-05-02T07:08:00.482Z,38.48
2023-05-02T07:10:27.440Z,38.18
2023-05-02T07:12:54.393Z,37.83
2023-05-02T07:15:21.279Z,37.65
2023-05-02T07:17:49.709Z,37.55
2023-05-02T07:20:16.720Z,37.93
2023-05-02T07:22:43.717Z,37.76
2023-05-02T07:25:10.832Z,36.74
2023-05-02T07:27:38.101Z,35.98
2023-05-02T07:30:06.661Z,36.28
2023-05-02T07:32:33.777Z,35.81
2023-05-02T07:35:02.007Z,35.22
2023-05-02T07:37:34.244Z,35.15
2023-05-02T07:40:01.605Z,35.42
2023-05-02T07:42:30.491Z,35.29
2023-05-02T07:44:58.015Z,35.10
2023-05-02T07:47:24.892Z,35.09
2023-05-02T07:49:52.740Z,34.39
2023-05-02T07:52:20.886Z,33.98
2023-05-02T07:54:51.394Z,33.57
2023-05-02T07:57:18.648Z,33.61
2023-05-02T07:59:45.701Z,33.37
2023-05-02T08:02:14.224Z,33.11
2023-05-02T08:04:41.782Z,32.70
2023-05-02T08:07:08.886Z,31.58
2023-05-02T08:09:35.694Z,31.53
2023-05-02T08:12:03.468Z,31.73
2023-05-02T08:14:30.468Z,31.95
2023-05-02T08:16:58.844Z,31.95
2023-05-02T08:19:25.972Z,32.08
2023-05-02T08:21:56.094Z,31.39
2023-05-02T08:24:23.352Z,30.75
2023-05-02T08:26:50.960Z,30.42
2023-05-02T08:29:17.906Z,29.99
2023-05-02T08:31:44.903Z,29.73
2023-05-02T08:34:12.009Z,29.45
2023-05-02T08:36:38.939Z,29.83
2023-05-02T08:39:08.217Z,30.21
2023-05-02T08:41:35.249Z,29.50
2023-05-02T08:44:02.788Z,29.31
2023-05-02T08:46:29.765Z,29.02
2023-05-02T08:48:59.390Z,29.20
2023-05-02T08:51:26.187Z,28.84
2023-05-02T08:53:53.026Z,29.17
2023-05-02T08:56:19.856Z,28.75
2023-05-02T08:58:46.743Z,28.84
2023-05-02T09:01:16.053Z,28.92
2023-05-02T09:03:47.084Z,28.84
2023-05-02T09:06:21.295Z,29.15
2023-05-02T09:08:49.648Z,29.35
2023-05-02T09:11:17.089Z,29.53
2023-05-02T09:13:48.088Z,29.42
2023-05-02T09:16:15.351Z,28.90
2023-05-02T09:18:46.783Z,29.02
2023-05-02T09:21:17.289Z,28.79
2023-05-02T09:23:47.622Z,28.55
2023-05-02T09:26:25.008Z,28.46
2023-05-02T09:28:53.359Z,28.35
2023-05-02T09:33:57.155Z,28.88
2023-05-02T09:36:24.302Z,28.88
2023-05-02T09:38:51.472Z,29.12
2023-05-02T09:41:20.204Z,29.42
2023-05-02T09:43:56.222Z,29.41
2023-05-02T09:46:23.335Z,29.11
2023-05-02T09:48:56.274Z,28.59
2023-05-02T09:51:24.679Z,28.74
2023-05-02T09:53:51.942Z,28.93
2023-05-02T09:56:19.002Z,28.15
2023-05-02T09:58:46.030Z,27.87
2023-05-02T10:01:17.307Z,27.77
2023-05-02T10:03:47.305Z,27.74
2023-05-02T10:06:18.876Z,27.62
2023-05-02T10:08:47.527Z,27.25
2023-05-02T10:11:14.685Z,27.69
2023-05-02T10:13:42.861Z,27.65
2023-05-02T10:16:10.776Z,27.94
2023-05-02T10:18:48.629Z,27.89
2023-05-02T10:21:24.243Z,28.02
2023-05-02T10:23:53.575Z,28.18
2023-05-02T10:26:26.344Z,27.30
2023-05-02T10:28:53.208Z,26.62
2023-05-02T10:31:20.160Z,26.65
2023-05-02T10:33:47.641Z,26.61
2023-05-02T10:36:14.652Z,27.02
2023-05-02T10:38:42.269Z,26.73
2023-05-02T10:41:17.764Z,27.02
2023-05-02T10:43:49.177Z,26.85
2023-05-02T10:46:34.568Z,26.48
2023-05-02T10:49:01.695Z,26.11
2023-05-02T10:51:32.269Z,25.89
2023-05-02T10:54:18.072Z,26.35
2023-05-02T10:57:03.572Z,26.56
2023-05-02T10:59:31.932Z,26.35
2023-05-02T11:01:58.878Z,26.03
2023-05-02T11:04:25.853Z,26.30
2023-05-02T11:07:05.044Z,27.00
2023-05-02T11:09:33.263Z,26.44
2023-05-02T11:12:02.028Z,26.14
2023-05-02T11:14:35.070Z,26.09
2023-05-02T11:17:02.141Z,25.97
2023-05-02T11:19:31.442Z,25.42
2023-05-02T11:22:24.119Z,25.71
2023-05-02T11:24:51.240Z,26.46
2023-05-02T11:27:30.885Z,26.32
2023-05-02T11:30:01.734Z,25.95
2023-05-02T11:32:44.791Z,25.37
2023-05-02T11:35:21.738Z,25.63
2023-05-02T11:37:55.366Z,25.45
2023-05-02T11:40:22.889Z,25.14
2023-05-02T11:42:49.838Z,25.31
2023-05-02T11:45:16.993Z,25.05
2023-05-02T11:47:43.968Z,24.85
2023-05-02T11:50:11.257Z,24.31
2023-05-02T11:52:42.854Z,24.16
2023-05-02T11:55:13.573Z,24.38
2023-05-02T11:57:40.738Z,24.81
2023-05-02T12:00:08.322Z,25.26
2023-05-02T12:02:36.662Z,25.55
2023-05-02T12:05:06.106Z,24.43
2023-05-02T12:07:37.136Z,23.96
2023-05-02T12:10:04.475Z,23.74
2023-05-02T12:12:31.921Z,23.67
2023-05-02T12:14:58.995Z,23.63
2023-05-02T12:17:26.265Z,23.76
2023-05-02T12:19:53.095Z,23.95
2023-05-02T12:22:20.014Z,24.04
2023-05-02T12:24:47.164Z,24.02
2023-05-02T12:27:14.808Z,23.86
2023-05-02T12:29:48.509Z,23.20
2023-05-02T12:32:16.718Z,23.05
2023-05-02T12:34:43.756Z,23.50
2023-05-02T12:37:11.937Z,23.11
2023-05-02T12:39:48.796Z,23.16
2023-05-02T12:42:20.214Z,22.90
2023-05-02T12:44:48.002Z,22.65
2023-05-02T12:47:18.135Z,22.76
2023-05-02T12:49:58.032Z,22.79
2023-05-02T12:52:48.312Z,22.37
2023-05-02T12:55:24.576Z,22.00
2023-05-02T12:57:51.514Z,21.81
2023-05-02T13:00:18.385Z,21.73
2023-05-02T13:02:45.418Z,21.92
2023-05-02T13:05:16.272Z,21.62
2023-05-02T13:07:43.158Z,21.96
2023-05-02T13:10:11.463Z,21.95
2023-05-02T13:12:38.699Z,21.37
2023-05-02T13:15:07.368Z,20.83
2023-05-02T13:17:35.081Z,20.36
2023-05-02T13:20:02.581Z,20.39
2023-05-02T13:22:29.704Z,20.52
2023-05-02T13:24:56.612Z,20.81
2023-05-02T13:27:23.860Z,20.73
2023-05-02T13:29:50.801Z,20.60
2023-05-02T13:32:18.026Z,20.46
2023-05-02T13:34:45.242Z,20.38
2023-05-02T13:37:12.156Z,20.48
2023-05-02T13:39:39.192Z,20.38
2023-05-02T13:42:06.587Z,19.96
2023-05-02T13:44:33.443Z,19.60
2023-05-02T13:47:00.850Z,17.95
2023-05-02T13:49:28.124Z,17.50
2023-05-02T13:51:54.963Z,15.86
2023-05-02T13:54:21.771Z,14.24
2023-05-02T13:56:48.605Z,13.26
2023-05-02T13:59:15.580Z,12.63
2023-05-02T14:01:42.843Z,12.61
2023-05-02T14:04:09.975Z,12.25
2023-05-02T14:06:37.119Z,11.66
2023-05-02T14:09:04.279Z,10.86
2023-05-02T14:11:31.156Z,10.16
2023-05-02T14:13:59.924Z,9.55
2023-05-02T14:16:26.899Z,9.64
2023-05-02T14:18:53.976Z,9.49
2023-05-02T14:21:21.163Z,9.45
2023-05-02T14:23:48.053Z,9.10
2023-05-02T14:26:15.498Z,8.72
2023-05-02T14:28:42.426Z,8.68
2023-05-02T14:31:09.387Z,8.50
2023-05-02T14:33:36.271Z,8.64
2023-05-02T14:36:04.046Z,9.21
2023-05-02T14:38:31.000Z,9.09
2023-05-02T14:40:58.084Z,9.29
2023-05-02T14:43:24.947Z,8.92
2023-05-02T14:45:52.116Z,9.00
2023-05-02T14:48:19.000Z,8.80
2023-05-02T14:50:45.944Z,8.36
2023-05-02T14:53:13.202Z,8.66
2023-05-02T14:55:40.116Z,8.80
2023-05-02T14:58:10.501Z,8.27
2023-05-02T15:00:38.298Z,8.23
2023-05-02T15:03:07.899Z,8.20
2023-05-02T15:05:36.302Z,8.01
2023-05-02T15:08:03.588Z,8.35
2023-05-02T15:10:30.623Z,8.23
2023-05-02T15:12:57.443Z,8.21
2023-05-02T15:15:25.442Z,8.48
2023-05-02T15:17:53.125Z,8.60
2023-05-02T15:20:20.350Z,8.61
2023-05-02T15:22:47.401Z,8.67
2023-05-02T15:25:14.209Z,8.55
2023-05-02T15:27:41.815Z,8.45
2023-05-02T15:30:09.170Z,8.33
2023-05-02T15:32:36.070Z,8.03
2023-05-02T15:35:04.493Z,8.26
2023-05-02T15:37:31.564Z,8.15
2023-05-02T15:40:00.022Z,8.35
2023-05-02T15:42:27.085Z,8.09
2023-05-02T15:44:54.324Z,8.39
2023-05-02T15:47:22.706Z,8.78
2023-05-02T15:49:53.861Z,8.88
2023-05-02T15:52:21.410Z,8.97
2023-05-02T15:54:48.174Z,9.29
2023-05-02T15:57:15.094Z,9.46
2023-05-02T15:59:41.963Z,9.65
2023-05-02T16:02:08.856Z,9.71
2023-05-02T16:04:35.909Z,9.89
2023-05-02T16:07:02.800Z,10.01
2023-05-02T16:09:31.350Z,10.09
2023-05-02T16:11:58.295Z,10.32
2023-05-02T16:14:26.371Z,10.49
2023-05-02T16:16:53.432Z,10.47
2023-05-02T16:19:21.285Z,10.84
2023-05-02T16:21:48.434Z,11.04
2023-05-02T16:24:15.379Z,11.31
2023-05-02T16:26:42.327Z,11.33
2023-05-02T16:29:09.132Z,11.57
2023-05-02T16:31:36.596Z,11.87
2023-05-02T16:34:04.109Z,12.32
2023-05-02T16:48:02.611Z,14.42
2023-05-02T16:50:29.607Z,15.69
2023-05-02T16:52:56.505Z,16.38
2023-05-02T16:55:23.345Z,17.07
2023-05-02T16:57:50.229Z,17.44
2023-05-02T17:00:18.023Z,17.68
2023-05-02T17:02:45.142Z,18.25
2023-05-02T17:05:12.198Z,18.68
2023-05-02T17:07:39.036Z,19.50
2023-05-02T17:10:07.571Z,19.78
2023-05-02T17:12:34.463Z,20.23
2023-05-02T17:15:02.873Z,20.44
2023-05-02T17:17:31.101Z,20.69
2023-05-02T17:19:57.991Z,21.19
2023-05-02T17:22:24.955Z,21.50
2023-05-02T17:24:54.185Z,21.73
2023-05-02T17:27:21.256Z,21.85
2023-05-02T17:29:48.154Z,22.23
2023-05-02T17:32:15.981Z,22.61
2023-05-02T17:34:45.911Z,22.83
2023-05-02T17:37:12.747Z,23.04
2023-05-02T17:39:39.594Z,23.26
2023-05-02T17:42:07.079Z,23.51
2023-05-02T17:44:36.820Z,23.64
2023-05-02T17:47:04.116Z,23.85
2023-05-02T17:49:30.920Z,24.15
2023-05-02T17:51:57.959Z,24.14
2023-05-02T17:54:24.946Z,24.38
2023-05-02T17:56:52.386Z,24.75
2023-05-02T17:59:20.108Z,24.76
2023-05-02T18:01:47.041Z,25.12
2023-05-02T18:04:15.012Z,25.31
2023-05-02T18:06:41.970Z,25.86
2023-05-02T18:09:09.266Z,26.35
2023-05-02T18:11:40.076Z,26.87
2023-05-02T18:14:07.254Z,27.16
2023-05-02T18:16:36.521Z,27.26
2023-05-02T18:19:03.590Z,27.24
2023-05-02T18:21:33.860Z,27.27
2023-05-02T18:24:00.887Z,27.38
2023-05-02T18:26:27.820Z,27.42
2023-05-02T18:28:54.733Z,27.71
2023-05-02T18:31:22.456Z,28.01
2023-05-02T18:33:49.896Z,28.33
2023-05-02T18:36:20.714Z,28.52
2023-05-02T18:38:47.774Z,28.69
2023-05-02T18:41:14.608Z,29.08
2023-05-02T18:43:41.476Z,29.41
2023-05-02T18:46:08.743Z,29.48
2023-05-02T18:48:36.531Z,29.67
2023-05-02T18:51:03.617Z,30.07
2023-05-02T18:53:30.756Z,30.71
2023-05-02T18:56:00.818Z,31.27
2023-05-02T18:58:27.886Z,31.56
2023-05-02T19:00:54.813Z,31.88
2023-05-02T19:03:22.334Z,32.22
2023-05-02T19:05:51.423Z,32.62
2023-05-02T19:08:18.401Z,33.32
2023-05-02T19:10:45.339Z,33.84
2023-05-02T19:13:12.282Z,34.39
2023-05-02T19:15:39.378Z,34.70
2023-05-02T19:18:06.549Z,35.27
2023-05-02T19:20:33.436Z,35.42
2023-05-02T19:23:10.946Z,35.78
2023-05-02T19:25:46.088Z,36.24
2023-05-02T19:28:15.742Z,36.71
2023-05-02T19:30:45.904Z,36.99
2023-05-02T19:33:13.119Z,37.30
2023-05-02T19:35:40.328Z,37.61
2023-05-02T19:38:07.498Z,38.15
2023-05-02T19:40:34.442Z,38.72
2023-05-02T19:43:01.559Z,39.18
2023-05-02T19:45:28.391Z,39.58
2023-05-02T19:47:55.440Z,39.96
2023-05-02T19:50:23.205Z,40.24
2023-05-02T19:52:50.600Z,40.31
2023-05-02T19:55:18.707Z,40.46
2023-05-02T19:57:45.696Z,40.48
2023-05-02T20:00:14.036Z,40.53
2023-05-02T20:02:41.137Z,40.56
2023-05-02T20:05:08.782Z,40.61
2023-05-02T20:07:36.271Z,40.65
2023-05-02T20:10:03.578Z,40.74
2023-05-02T20:12:30.827Z,41.04
2023-05-02T20:14:57.629Z,41.31
2023-05-02T20:17:24.617Z,41.42
2023-05-02T20:19:51.811Z,41.23
2023-05-02T20:22:19.067Z,41.14
2023-05-02T20:24:45.972Z,40.65
2023-05-02T20:27:13.015Z,40.24
2023-05-02T20:29:39.830Z,39.83
2023-05-02T20:32:06.958Z,39.61
2023-05-02T20:34:35.781Z,39.42
2023-05-02T20:37:05.438Z,39.36
2023-05-02T20:39:32.568Z,39.18
2023-05-02T20:41:59.605Z,38.97
2023-05-02T20:44:28.662Z,38.86
2023-05-02T20:46:55.644Z,38.81
2023-05-02T20:49:22.499Z,38.62
2023-05-02T20:51:50.271Z,38.44
2023-05-02T20:54:18.009Z,38.36
2023-05-02T20:56:44.814Z,38.33
2023-05-02T20:59:11.806Z,38.30
2023-05-02T21:01:38.967Z,38.56
2023-05-02T21:04:06.129Z,38.68
2023-05-02T21:06:33.203Z,38.79
2023-05-02T21:09:02.198Z,38.97
2023-05-02T21:11:30.529Z,39.11
2023-05-02T21:13:57.320Z,39.19
2023-05-02T21:16:24.218Z,39.30
2023-05-02T21:18:52.516Z,39.40
2023-05-02T21:21:19.328Z,39.44
2023-05-02T21:23:46.295Z,39.20
2023-05-02T21:26:13.239Z,39.02
2023-05-02T21:28:40.149Z,38.86
2023-05-02T21:31:07.578Z,39.02
2023-05-02T21:33:34.773Z,39.00
2023-05-02T21:36:01.849Z,39.08
2023-05-02T21:38:29.183Z,39.02
2023-05-02T21:40:56.171Z,39.12
2023-05-02T21:43:23.018Z,39.52
2023-05-02T21:45:50.047Z,39.66
2023-05-02T21:48:17.282Z,39.83
2023-05-02T21:50:44.474Z,39.84
2023-05-02T21:53:11.497Z,39.91
2023-05-02T21:55:39.809Z,39.98
2023-05-02T21:58:07.840Z,39.94
2023-05-02T22:00:38.386Z,39.93
2023-05-02T22:03:10.111Z,39.96
2023-05-02T22:05:48.533Z,40.10
2023-05-02T22:08:15.695Z,40.21
2023-05-02T22:10:43.225Z,40.25
2023-05-02T22:13:12.438Z,40.40
2023-05-02T22:15:43.276Z,40.65
2023-05-02T22:18:10.662Z,40.83
2023-05-02T22:20:38.132Z,41.00
2023-05-02T22:23:05.026Z,41.15
2023-05-02T22:25:32.193Z,41.27
2023-05-02T22:28:03.426Z,41.47
2023-05-02T22:30:30.444Z,41.83
2023-05-02T22:32:57.327Z,42.19
2023-05-02T22:35:24.265Z,42.72
2023-05-02T22:37:51.233Z,43.01
2023-05-02T22:40:18.375Z,42.97
2023-05-02T22:42:45.509Z,42.92
2023-05-02T22:45:13.634Z,43.27
2023-05-02T22:47:40.660Z,43.65
2023-05-02T22:50:10.172Z,43.76
2023-05-02T22:52:38.514Z,43.98
2023-05-02T22:55:09.334Z,44.08
2023-05-02T22:57:37.242Z,44.13
2023-05-02T23:00:05.834Z,44.14
2023-05-02T23:02:32.978Z,44.00
2023-05-02T23:05:01.061Z,43.84
2023-05-02T23:07:28.086Z,43.83
2023-05-02T23:09:54.927Z,43.91
2023-05-02T23:12:21.924Z,44.02
2023-05-02T23:14:48.883Z,43.92
2023-05-02T23:17:16.112Z,43.91
2023-05-02T23:19:42.924Z,43.82
2023-05-02T23:22:10.061Z,43.74
2023-05-02T23:24:36.904Z,44.01
2023-05-02T23:27:03.849Z,44.35
2023-05-02T23:29:30.695Z,44.49
2023-05-02T23:31:57.657Z,44.49
2023-05-02T23:34:24.591Z,44.50
2023-05-02T23:36:51.832Z,44.66
2023-05-02T23:39:18.799Z,44.94
2023-05-02T23:41:45.661Z,45.18
2023-05-02T23:44:12.514Z,45.54
2023-05-02T23:46:40.364Z,45.70
2023-05-02T23:49:07.383Z,45.69
2023-05-02T23:51:34.338Z,45.58
2023-05-02T23:54:01.597Z,45.38
2023-05-02T23:56:28.524Z,45.32
2023-05-02T23:58:55.465Z,45.57
